sensor_id;sensor_type;location;lat;lon;timestamp;P1;durP1;ratioP1;P2;durP2;ratioP2
4986;SDS011;12674;51.500;7.552;2023-08-24T00:01:37;12.38;;;6.30;;
4986;SDS011;12674;51.500;7.552;2023-08-24T00:03:40;10.40;;;6.80;;
4986;SDS011;12674;51.500;7.552;2023-08-24T00:05:42;7.88;;;5.63;;
4986;SDS011;12674;51.500;7.552;2023-08-24T00:07:45;9.68;;;5.18;;
4986;SDS011;12674;51.500;7.552;2023-08-24T00:09:52;12.25;;;5.40;;
4986;SDS011;12674;51.500;7.552;2023-08-24T00:11:55;10.65;;;5.90;;
4986;SDS011;12674;51.500;7.552;2023-08-24T00:13:59;16.13;;;5.95;;
4986;SDS011;12674;51.500;7.552;2023-08-24T00:16:02;9.30;;;5.60;;
4986;SDS011;12674;51.500;7.552;2023-08-24T00:18:05;7.35;;;5.07;;
4986;SDS011;12674;51.500;7.552;2023-08-24T00:20:09;15.40;;;6.75;;
4986;SDS011;12674;51.500;7.552;2023-08-24T00:22:12;9.05;;;5.38;;
4986;SDS011;12674;51.500;7.552;2023-08-24T00:24:15;16.35;;;6.10;;
4986;SDS011;12674;51.500;7.552;2023-08-24T00:26:18;10.45;;;5.50;;
4986;SDS011;12674;51.500;7.552;2023-08-24T00:28:21;8.55;;;6.05;;
4986;SDS011;12674;51.500;7.552;2023-08-24T00:30:24;12.05;;;5.80;;
4986;SDS011;12674;51.500;7.552;2023-08-24T00:32:27;9.82;;;6.63;;
4986;SDS011;12674;51.500;7.552;2023-08-24T00:34:30;9.75;;;6.45;;
4986;SDS011;12674;51.500;7.552;2023-08-24T00:36:33;10.77;;;6.55;;
4986;SDS011;12674;51.500;7.552;2023-08-24T00:38:36;10.35;;;6.22;;
4986;SDS011;12674;51.500;7.552;2023-08-24T00:40:40;14.82;;;5.70;;
4986;SDS011;12674;51.500;7.552;2023-08-24T00:42:45;17.95;;;6.25;;
4986;SDS011;12674;51.500;7.552;2023-08-24T00:44:48;16.65;;;6.88;;
4986;SDS011;12674;51.500;7.552;2023-08-24T00:46:53;10.00;;;7.07;;
4986;SDS011;12674;51.500;7.552;2023-08-24T00:48:56;10.45;;;6.07;;
4986;SDS011;12674;51.500;7.552;2023-08-24T00:50:59;11.43;;;6.43;;
4986;SDS011;12674;51.500;7.552;2023-08-24T00:53:03;16.83;;;6.53;;
4986;SDS011;12674;51.500;7.552;2023-08-24T00:55:06;13.65;;;5.72;;
4986;SDS011;12674;51.500;7.552;2023-08-24T00:57:09;7.40;;;5.45;;
4986;SDS011;12674;51.500;7.552;2023-08-24T00:59:12;10.23;;;6.47;;
4986;SDS011;12674;51.500;7.552;2023-08-24T01:01:14;17.23;;;6.80;;
4986;SDS011;12674;51.500;7.552;2023-08-24T01:03:21;14.98;;;7.03;;
4986;SDS011;12674;51.500;7.552;2023-08-24T01:05:25;11.60;;;7.13;;
4986;SDS011;12674;51.500;7.552;2023-08-24T01:07:28;9.73;;;7.80;;
4986;SDS011;12674;51.500;7.552;2023-08-24T01:09:30;9.73;;;6.93;;
4986;SDS011;12674;51.500;7.552;2023-08-24T01:11:49;16.95;;;7.18;;
4986;SDS011;12674;51.500;7.552;2023-08-24T01:14:01;23.23;;;7.50;;
4986;SDS011;12674;51.500;7.552;2023-08-24T01:16:08;13.60;;;7.53;;
4986;SDS011;12674;51.500;7.552;2023-08-24T01:18:13;9.75;;;7.05;;
4986;SDS011;12674;51.500;7.552;2023-08-24T01:20:19;13.15;;;6.50;;
4986;SDS011;12674;51.500;7.552;2023-08-24T01:22:31;16.73;;;7.78;;
4986;SDS011;12674;51.500;7.552;2023-08-24T01:24:37;10.85;;;6.88;;
4986;SDS011;12674;51.500;7.552;2023-08-24T01:26:43;13.30;;;7.13;;
4986;SDS011;12674;51.500;7.552;2023-08-24T01:28:47;9.13;;;6.88;;
4986;SDS011;12674;51.500;7.552;2023-08-24T01:30:50;12.65;;;6.72;;
4986;SDS011;12674;51.500;7.552;2023-08-24T01:32:53;16.77;;;6.68;;
4986;SDS011;12674;51.500;7.552;2023-08-24T01:34:56;11.52;;;6.53;;
4986;SDS011;12674;51.500;7.552;2023-08-24T01:36:59;11.75;;;6.80;;
4986;SDS011;12674;51.500;7.552;2023-08-24T01:39:05;16.73;;;6.93;;
4986;SDS011;12674;51.500;7.552;2023-08-24T01:41:26;10.45;;;6.80;;
4986;SDS011;12674;51.500;7.552;2023-08-24T01:43:32;9.00;;;6.43;;
4986;SDS011;12674;51.500;7.552;2023-08-24T01:45:44;14.25;;;7.65;;
4986;SDS011;12674;51.500;7.552;2023-08-24T01:47:48;12.52;;;6.43;;
4986;SDS011;12674;51.500;7.552;2023-08-24T01:49:52;11.85;;;6.93;;
4986;SDS011;12674;51.500;7.552;2023-08-24T01:51:56;12.73;;;7.15;;
4986;SDS011;12674;51.500;7.552;2023-08-24T01:53:59;9.57;;;6.50;;
4986;SDS011;12674;51.500;7.552;2023-08-24T01:56:07;10.32;;;6.95;;
4986;SDS011;12674;51.500;7.552;2023-08-24T01:58:11;16.48;;;7.70;;
4986;SDS011;12674;51.500;7.552;2023-08-24T02:00:15;14.27;;;6.80;;
4986;SDS011;12674;51.500;7.552;2023-08-24T02:02:21;9.43;;;6.72;;
4986;SDS011;12674;51.500;7.552;2023-08-24T02:04:24;14.57;;;7.88;;
4986;SDS011;12674;51.500;7.552;2023-08-24T02:06:27;10.07;;;7.32;;
4986;SDS011;12674;51.500;7.552;2023-08-24T02:08:30;10.07;;;6.80;;
4986;SDS011;12674;51.500;7.552;2023-08-24T02:10:33;12.85;;;7.18;;
4986;SDS011;12674;51.500;7.552;2023-08-24T02:12:37;11.55;;;7.80;;
4986;SDS011;12674;51.500;7.552;2023-08-24T02:14:40;10.43;;;6.53;;
4986;SDS011;12674;51.500;7.552;2023-08-24T02:16:43;10.48;;;7.15;;
4986;SDS011;12674;51.500;7.552;2023-08-24T02:18:47;15.63;;;7.32;;
4986;SDS011;12674;51.500;7.552;2023-08-24T02:20:50;14.07;;;7.70;;
4986;SDS011;12674;51.500;7.552;2023-08-24T02:22:53;15.45;;;7.50;;
4986;SDS011;12674;51.500;7.552;2023-08-24T02:24:56;12.05;;;7.40;;
4986;SDS011;12674;51.500;7.552;2023-08-24T02:26:58;12.88;;;7.90;;
4986;SDS011;12674;51.500;7.552;2023-08-24T02:29:01;10.10;;;7.78;;
4986;SDS011;12674;51.500;7.552;2023-08-24T02:31:04;14.35;;;7.90;;
4986;SDS011;12674;51.500;7.552;2023-08-24T02:33:08;9.32;;;7.68;;
4986;SDS011;12674;51.500;7.552;2023-08-24T02:35:12;18.45;;;8.20;;
4986;SDS011;12674;51.500;7.552;2023-08-24T02:37:16;12.88;;;7.78;;
4986;SDS011;12674;51.500;7.552;2023-08-24T02:39:19;13.68;;;8.25;;
4986;SDS011;12674;51.500;7.552;2023-08-24T02:41:22;14.43;;;8.82;;
4986;SDS011;12674;51.500;7.552;2023-08-24T02:43:25;14.95;;;8.05;;
4986;SDS011;12674;51.500;7.552;2023-08-24T02:45:28;10.02;;;7.70;;
4986;SDS011;12674;51.500;7.552;2023-08-24T02:47:31;11.35;;;7.95;;
4986;SDS011;12674;51.500;7.552;2023-08-24T02:49:36;13.80;;;7.70;;
4986;SDS011;12674;51.500;7.552;2023-08-24T02:51:40;14.32;;;7.28;;
4986;SDS011;12674;51.500;7.552;2023-08-24T02:53:43;10.25;;;7.70;;
4986;SDS011;12674;51.500;7.552;2023-08-24T02:55:46;13.55;;;6.93;;
4986;SDS011;12674;51.500;7.552;2023-08-24T02:57:49;10.48;;;7.50;;
4986;SDS011;12674;51.500;7.552;2023-08-24T02:59:53;10.75;;;6.95;;
4986;SDS011;12674;51.500;7.552;2023-08-24T03:01:56;15.13;;;7.43;;
4986;SDS011;12674;51.500;7.552;2023-08-24T03:04:00;12.55;;;6.90;;
4986;SDS011;12674;51.500;7.552;2023-08-24T03:06:05;18.20;;;7.22;;
4986;SDS011;12674;51.500;7.552;2023-08-24T03:08:09;10.82;;;7.20;;
4986;SDS011;12674;51.500;7.552;2023-08-24T03:10:14;15.85;;;7.65;;
4986;SDS011;12674;51.500;7.552;2023-08-24T03:12:17;11.13;;;7.00;;
4986;SDS011;12674;51.500;7.552;2023-08-24T03:14:20;10.73;;;6.80;;
4986;SDS011;12674;51.500;7.552;2023-08-24T03:16:23;12.23;;;7.07;;
4986;SDS011;12674;51.500;7.552;2023-08-24T03:22:03;13.30;;;7.20;;
4986;SDS011;12674;51.500;7.552;2023-08-24T03:24:06;9.63;;;7.10;;
4986;SDS011;12674;51.500;7.552;2023-08-24T03:26:09;10.00;;;7.32;;
4986;SDS011;12674;51.500;7.552;2023-08-24T03:28:12;11.38;;;6.90;;
4986;SDS011;12674;51.500;7.552;2023-08-24T03:30:15;15.85;;;7.57;;
4986;SDS011;12674;51.500;7.552;2023-08-24T03:32:18;17.20;;;7.15;;
4986;SDS011;12674;51.500;7.552;2023-08-24T03:34:21;14.45;;;6.85;;
4986;SDS011;12674;51.500;7.552;2023-08-24T03:36:24;11.05;;;7.22;;
4986;SDS011;12674;51.500;7.552;2023-08-24T03:38:29;12.20;;;6.28;;
4986;SDS011;12674;51.500;7.552;2023-08-24T03:40:32;8.20;;;6.63;;
4986;SDS011;12674;51.500;7.552;2023-08-24T03:42:35;12.73;;;6.80;;
4986;SDS011;12674;51.500;7.552;2023-08-24T03:44:38;8.95;;;7.18;;
4986;SDS011;12674;51.500;7.552;2023-08-24T03:46:41;12.27;;;6.80;;
4986;SDS011;12674;51.500;7.552;2023-08-24T03:48:44;13.05;;;7.53;;
4986;SDS011;12674;51.500;7.552;2023-08-24T03:50:47;16.15;;;7.40;;
4986;SDS011;12674;51.500;7.552;2023-08-24T03:52:50;18.42;;;7.80;;
4986;SDS011;12674;51.500;7.552;2023-08-24T03:54:53;9.88;;;6.55;;
4986;SDS011;12674;51.500;7.552;2023-08-24T03:56:56;16.95;;;7.07;;
4986;SDS011;12674;51.500;7.552;2023-08-24T03:59:01;16.33;;;7.53;;
4986;SDS011;12674;51.500;7.552;2023-08-24T04:01:04;19.23;;;6.63;;
4986;SDS011;12674;51.500;7.552;2023-08-24T04:03:12;15.38;;;6.85;;
4986;SDS011;12674;51.500;7.552;2023-08-24T04:05:16;16.60;;;6.60;;
4986;SDS011;12674;51.500;7.552;2023-08-24T04:07:19;17.98;;;7.20;;
4986;SDS011;12674;51.500;7.552;2023-08-24T04:09:22;11.95;;;6.50;;
4986;SDS011;12674;51.500;7.552;2023-08-24T04:11:27;14.20;;;7.00;;
4986;SDS011;12674;51.500;7.552;2023-08-24T04:13:30;11.73;;;7.15;;
4986;SDS011;12674;51.500;7.552;2023-08-24T04:15:33;9.55;;;6.82;;
4986;SDS011;12674;51.500;7.552;2023-08-24T04:17:36;11.35;;;5.40;;
4986;SDS011;12674;51.500;7.552;2023-08-24T04:19:43;6.95;;;5.88;;
4986;SDS011;12674;51.500;7.552;2023-08-24T04:21:47;9.95;;;5.15;;
4986;SDS011;12674;51.500;7.552;2023-08-24T04:23:49;10.80;;;5.93;;
4986;SDS011;12674;51.500;7.552;2023-08-24T04:25:52;9.02;;;6.55;;
4986;SDS011;12674;51.500;7.552;2023-08-24T04:27:57;14.15;;;7.22;;
4986;SDS011;12674;51.500;7.552;2023-08-24T04:30:00;11.60;;;6.93;;
4986;SDS011;12674;51.500;7.552;2023-08-24T04:32:02;10.02;;;7.07;;
4986;SDS011;12674;51.500;7.552;2023-08-24T04:34:05;10.95;;;6.80;;
4986;SDS011;12674;51.500;7.552;2023-08-24T04:36:08;10.80;;;7.40;;
4986;SDS011;12674;51.500;7.552;2023-08-24T04:38:11;14.10;;;7.10;;
4986;SDS011;12674;51.500;7.552;2023-08-24T04:40:14;13.43;;;7.05;;
4986;SDS011;12674;51.500;7.552;2023-08-24T04:42:17;15.88;;;7.85;;
4986;SDS011;12674;51.500;7.552;2023-08-24T04:44:22;10.30;;;6.75;;
4986;SDS011;12674;51.500;7.552;2023-08-24T04:46:24;21.98;;;7.47;;
4986;SDS011;12674;51.500;7.552;2023-08-24T04:48:28;19.95;;;8.13;;
4986;SDS011;12674;51.500;7.552;2023-08-24T04:50:34;17.00;;;7.43;;
4986;SDS011;12674;51.500;7.552;2023-08-24T04:52:41;15.18;;;6.95;;
4986;SDS011;12674;51.500;7.552;2023-08-24T04:54:44;17.20;;;7.50;;
4986;SDS011;12674;51.500;7.552;2023-08-24T04:56:47;14.13;;;8.23;;
4986;SDS011;12674;51.500;7.552;2023-08-24T04:58:53;13.80;;;7.55;;
4986;SDS011;12674;51.500;7.552;2023-08-24T05:00:58;17.65;;;7.75;;
4986;SDS011;12674;51.500;7.552;2023-08-24T05:03:01;17.48;;;7.38;;
4986;SDS011;12674;51.500;7.552;2023-08-24T05:05:05;10.70;;;7.18;;
4986;SDS011;12674;51.500;7.552;2023-08-24T05:07:10;19.55;;;7.45;;
4986;SDS011;12674;51.500;7.552;2023-08-24T05:09:13;15.00;;;7.90;;
4986;SDS011;12674;51.500;7.552;2023-08-24T05:11:16;18.23;;;8.65;;
4986;SDS011;12674;51.500;7.552;2023-08-24T05:13:25;21.13;;;8.38;;
4986;SDS011;12674;51.500;7.552;2023-08-24T05:15:28;16.00;;;8.40;;
4986;SDS011;12674;51.500;7.552;2023-08-24T05:17:31;16.63;;;8.80;;
4986;SDS011;12674;51.500;7.552;2023-08-24T05:19:34;24.48;;;8.18;;
4986;SDS011;12674;51.500;7.552;2023-08-24T05:21:37;14.48;;;7.88;;
4986;SDS011;12674;51.500;7.552;2023-08-24T05:23:40;19.15;;;9.25;;
4986;SDS011;12674;51.500;7.552;2023-08-24T05:25:43;22.10;;;8.77;;
4986;SDS011;12674;51.500;7.552;2023-08-24T05:27:46;11.75;;;7.43;;
4986;SDS011;12674;51.500;7.552;2023-08-24T05:29:50;18.45;;;7.97;;
4986;SDS011;12674;51.500;7.552;2023-08-24T05:31:53;11.88;;;6.95;;
4986;SDS011;12674;51.500;7.552;2023-08-24T05:33:57;10.25;;;7.43;;
4986;SDS011;12674;51.500;7.552;2023-08-24T05:36:00;15.68;;;7.20;;
4986;SDS011;12674;51.500;7.552;2023-08-24T05:38:03;14.60;;;7.22;;
4986;SDS011;12674;51.500;7.552;2023-08-24T05:40:07;9.95;;;7.68;;
4986;SDS011;12674;51.500;7.552;2023-08-24T05:42:10;17.05;;;8.48;;
4986;SDS011;12674;51.500;7.552;2023-08-24T05:44:14;11.80;;;6.50;;
4986;SDS011;12674;51.500;7.552;2023-08-24T05:46:18;14.20;;;6.95;;
4986;SDS011;12674;51.500;7.552;2023-08-24T05:48:21;10.63;;;6.53;;
4986;SDS011;12674;51.500;7.552;2023-08-24T05:50:26;10.00;;;6.43;;
4986;SDS011;12674;51.500;7.552;2023-08-24T05:52:29;9.35;;;5.97;;
4986;SDS011;12674;51.500;7.552;2023-08-24T05:54:32;17.52;;;6.35;;
4986;SDS011;12674;51.500;7.552;2023-08-24T05:56:36;9.23;;;5.60;;
4986;SDS011;12674;51.500;7.552;2023-08-24T05:58:38;11.98;;;5.55;;
4986;SDS011;12674;51.500;7.552;2023-08-24T06:00:42;9.88;;;5.82;;
4986;SDS011;12674;51.500;7.552;2023-08-24T06:02:45;7.10;;;5.97;;
4986;SDS011;12674;51.500;7.552;2023-08-24T06:04:47;13.60;;;6.00;;
4986;SDS011;12674;51.500;7.552;2023-08-24T06:06:53;11.52;;;6.20;;
4986;SDS011;12674;51.500;7.552;2023-08-24T06:08:56;10.52;;;5.60;;
4986;SDS011;12674;51.500;7.552;2023-08-24T06:10:59;11.88;;;5.78;;
4986;SDS011;12674;51.500;7.552;2023-08-24T06:13:02;8.57;;;6.15;;
4986;SDS011;12674;51.500;7.552;2023-08-24T06:15:05;25.65;;;7.20;;
4986;SDS011;12674;51.500;7.552;2023-08-24T06:17:11;15.10;;;5.93;;
4986;SDS011;12674;51.500;7.552;2023-08-24T06:19:14;11.80;;;5.57;;
4986;SDS011;12674;51.500;7.552;2023-08-24T06:21:17;11.00;;;5.85;;
4986;SDS011;12674;51.500;7.552;2023-08-24T06:23:21;16.38;;;7.10;;
4986;SDS011;12674;51.500;7.552;2023-08-24T06:25:24;11.00;;;5.53;;
4986;SDS011;12674;51.500;7.552;2023-08-24T06:27:27;14.07;;;6.18;;
4986;SDS011;12674;51.500;7.552;2023-08-24T06:29:30;14.38;;;6.13;;
4986;SDS011;12674;51.500;7.552;2023-08-24T06:31:35;12.18;;;5.90;;
4986;SDS011;12674;51.500;7.552;2023-08-24T06:33:38;14.90;;;6.10;;
4986;SDS011;12674;51.500;7.552;2023-08-24T06:35:41;13.20;;;6.30;;
4986;SDS011;12674;51.500;7.552;2023-08-24T06:37:44;13.07;;;6.00;;
4986;SDS011;12674;51.500;7.552;2023-08-24T06:39:49;8.45;;;5.05;;
4986;SDS011;12674;51.500;7.552;2023-08-24T06:41:51;12.00;;;5.13;;
4986;SDS011;12674;51.500;7.552;2023-08-24T06:43:59;11.55;;;5.65;;
4986;SDS011;12674;51.500;7.552;2023-08-24T06:46:02;11.15;;;5.45;;
4986;SDS011;12674;51.500;7.552;2023-08-24T06:48:05;11.07;;;5.80;;
4986;SDS011;12674;51.500;7.552;2023-08-24T06:50:12;18.13;;;5.13;;
4986;SDS011;12674;51.500;7.552;2023-08-24T06:52:15;11.80;;;5.32;;
4986;SDS011;12674;51.500;7.552;2023-08-24T06:54:18;10.13;;;5.63;;
4986;SDS011;12674;51.500;7.552;2023-08-24T06:56:22;10.93;;;5.13;;
4986;SDS011;12674;51.500;7.552;2023-08-24T06:58:25;9.18;;;4.45;;
4986;SDS011;12674;51.500;7.552;2023-08-24T07:00:27;14.38;;;4.30;;
4986;SDS011;12674;51.500;7.552;2023-08-24T07:02:30;13.30;;;4.80;;
4986;SDS011;12674;51.500;7.552;2023-08-24T07:04:34;9.57;;;4.47;;
4986;SDS011;12674;51.500;7.552;2023-08-24T07:06:38;8.38;;;4.20;;
4986;SDS011;12674;51.500;7.552;2023-08-24T07:08:41;9.60;;;5.88;;
4986;SDS011;12674;51.500;7.552;2023-08-24T07:10:44;17.73;;;5.05;;
4986;SDS011;12674;51.500;7.552;2023-08-24T07:12:48;10.25;;;5.10;;
4986;SDS011;12674;51.500;7.552;2023-08-24T07:14:51;11.07;;;4.90;;
4986;SDS011;12674;51.500;7.552;2023-08-24T07:16:55;13.30;;;4.50;;
4986;SDS011;12674;51.500;7.552;2023-08-24T07:18:58;13.82;;;4.22;;
4986;SDS011;12674;51.500;7.552;2023-08-24T07:21:01;8.63;;;4.30;;
4986;SDS011;12674;51.500;7.552;2023-08-24T07:23:04;9.75;;;4.82;;
4986;SDS011;12674;51.500;7.552;2023-08-24T07:25:07;6.25;;;4.10;;
4986;SDS011;12674;51.500;7.552;2023-08-24T07:27:13;19.63;;;4.50;;
4986;SDS011;12674;51.500;7.552;2023-08-24T07:29:17;7.80;;;4.03;;
4986;SDS011;12674;51.500;7.552;2023-08-24T07:31:20;12.63;;;4.57;;
4986;SDS011;12674;51.500;7.552;2023-08-24T07:33:22;17.92;;;4.75;;
4986;SDS011;12674;51.500;7.552;2023-08-24T07:35:26;15.82;;;4.22;;
4986;SDS011;12674;51.500;7.552;2023-08-24T07:37:29;9.82;;;4.25;;
4986;SDS011;12674;51.500;7.552;2023-08-24T07:39:32;10.70;;;4.00;;
4986;SDS011;12674;51.500;7.552;2023-08-24T07:41:36;9.95;;;4.00;;
4986;SDS011;12674;51.500;7.552;2023-08-24T07:43:39;3.95;;;2.70;;
4986;SDS011;12674;51.500;7.552;2023-08-24T07:45:43;13.50;;;4.07;;
4986;SDS011;12674;51.500;7.552;2023-08-24T07:47:46;10.40;;;3.85;;
4986;SDS011;12674;51.500;7.552;2023-08-24T07:49:50;8.30;;;4.07;;
4986;SDS011;12674;51.500;7.552;2023-08-24T07:51:53;15.48;;;4.03;;
4986;SDS011;12674;51.500;7.552;2023-08-24T07:53:57;11.80;;;3.65;;
4986;SDS011;12674;51.500;7.552;2023-08-24T07:55:59;8.52;;;4.00;;
4986;SDS011;12674;51.500;7.552;2023-08-24T07:58:03;7.03;;;3.47;;
4986;SDS011;12674;51.500;7.552;2023-08-24T08:00:06;8.85;;;3.53;;
4986;SDS011;12674;51.500;7.552;2023-08-24T08:02:14;6.85;;;3.00;;
4986;SDS011;12674;51.500;7.552;2023-08-24T08:04:17;7.55;;;3.42;;
4986;SDS011;12674;51.500;7.552;2023-08-24T08:06:20;13.90;;;3.83;;
4986;SDS011;12674;51.500;7.552;2023-08-24T08:08:26;8.95;;;3.55;;
4986;SDS011;12674;51.500;7.552;2023-08-24T08:10:28;13.10;;;3.45;;
4986;SDS011;12674;51.500;7.552;2023-08-24T08:12:30;8.65;;;3.20;;
4986;SDS011;12674;51.500;7.552;2023-08-24T08:14:34;8.00;;;3.15;;
4986;SDS011;12674;51.500;7.552;2023-08-24T08:16:37;5.47;;;2.90;;
4986;SDS011;12674;51.500;7.552;2023-08-24T08:18:42;4.72;;;2.95;;
4986;SDS011;12674;51.500;7.552;2023-08-24T08:20:45;10.48;;;3.42;;
4986;SDS011;12674;51.500;7.552;2023-08-24T08:22:48;10.02;;;2.88;;
4986;SDS011;12674;51.500;7.552;2023-08-24T08:25:28;8.55;;;3.53;;
4986;SDS011;12674;51.500;7.552;2023-08-24T08:27:35;7.18;;;3.80;;
4986;SDS011;12674;51.500;7.552;2023-08-24T08:29:38;10.15;;;3.65;;
4986;SDS011;12674;51.500;7.552;2023-08-24T08:31:41;7.70;;;3.45;;
4986;SDS011;12674;51.500;7.552;2023-08-24T08:33:45;10.02;;;3.58;;
4986;SDS011;12674;51.500;7.552;2023-08-24T08:35:48;7.68;;;3.03;;
4986;SDS011;12674;51.500;7.552;2023-08-24T08:37:51;5.63;;;2.85;;
4986;SDS011;12674;51.500;7.552;2023-08-24T08:39:55;7.38;;;2.63;;
4986;SDS011;12674;51.500;7.552;2023-08-24T08:41:58;6.07;;;2.90;;
4986;SDS011;12674;51.500;7.552;2023-08-24T08:44:04;6.63;;;2.83;;
4986;SDS011;12674;51.500;7.552;2023-08-24T08:46:08;5.40;;;2.65;;
4986;SDS011;12674;51.500;7.552;2023-08-24T08:48:13;8.88;;;2.78;;
4986;SDS011;12674;51.500;7.552;2023-08-24T08:50:17;5.80;;;2.90;;
4986;SDS011;12674;51.500;7.552;2023-08-24T08:52:20;5.03;;;2.97;;
4986;SDS011;12674;51.500;7.552;2023-08-24T08:54:23;8.30;;;2.60;;
4986;SDS011;12674;51.500;7.552;2023-08-24T08:56:26;5.95;;;2.60;;
4986;SDS011;12674;51.500;7.552;2023-08-24T08:58:28;5.55;;;2.80;;
4986;SDS011;12674;51.500;7.552;2023-08-24T09:00:32;8.32;;;2.88;;
4986;SDS011;12674;51.500;7.552;2023-08-24T09:02:35;3.70;;;2.45;;
4986;SDS011;12674;51.500;7.552;2023-08-24T09:04:38;4.72;;;2.33;;
4986;SDS011;12674;51.500;7.552;2023-08-24T09:06:42;7.10;;;2.42;;
4986;SDS011;12674;51.500;7.552;2023-08-24T09:08:46;12.70;;;2.60;;
4986;SDS011;12674;51.500;7.552;2023-08-24T09:10:49;11.30;;;2.92;;
4986;SDS011;12674;51.500;7.552;2023-08-24T09:12:52;8.32;;;3.17;;
4986;SDS011;12674;51.500;7.552;2023-08-24T09:14:55;10.23;;;2.90;;
4986;SDS011;12674;51.500;7.552;2023-08-24T09:16:58;7.88;;;3.15;;
4986;SDS011;12674;51.500;7.552;2023-08-24T09:19:02;8.30;;;2.38;;
4986;SDS011;12674;51.500;7.552;2023-08-24T09:21:08;8.52;;;2.35;;
4986;SDS011;12674;51.500;7.552;2023-08-24T09:23:18;8.13;;;2.45;;
4986;SDS011;12674;51.500;7.552;2023-08-24T09:25:22;10.43;;;3.30;;
4986;SDS011;12674;51.500;7.552;2023-08-24T09:27:25;5.75;;;2.70;;
4986;SDS011;12674;51.500;7.552;2023-08-24T09:29:28;5.88;;;2.88;;
4986;SDS011;12674;51.500;7.552;2023-08-24T09:31:39;4.82;;;2.65;;
4986;SDS011;12674;51.500;7.552;2023-08-24T09:33:42;8.38;;;2.80;;
4986;SDS011;12674;51.500;7.552;2023-08-24T09:35:51;9.93;;;2.97;;
4986;SDS011;12674;51.500;7.552;2023-08-24T09:37:55;6.97;;;2.95;;
4986;SDS011;12674;51.500;7.552;2023-08-24T09:40:02;10.32;;;2.95;;
4986;SDS011;12674;51.500;7.552;2023-08-24T09:42:09;7.05;;;2.17;;
4986;SDS011;12674;51.500;7.552;2023-08-24T09:44:12;12.68;;;2.80;;
4986;SDS011;12674;51.500;7.552;2023-08-24T09:46:15;11.57;;;2.70;;
4986;SDS011;12674;51.500;7.552;2023-08-24T09:48:25;4.78;;;2.20;;
4986;SDS011;12674;51.500;7.552;2023-08-24T09:50:32;5.10;;;3.15;;
4986;SDS011;12674;51.500;7.552;2023-08-24T09:52:35;6.55;;;3.08;;
4986;SDS011;12674;51.500;7.552;2023-08-24T09:54:40;4.55;;;2.40;;
4986;SDS011;12674;51.500;7.552;2023-08-24T09:56:45;3.08;;;2.13;;
4986;SDS011;12674;51.500;7.552;2023-08-24T09:58:49;9.45;;;2.88;;
4986;SDS011;12674;51.500;7.552;2023-08-24T10:00:54;7.40;;;3.03;;
4986;SDS011;12674;51.500;7.552;2023-08-24T10:02:58;6.05;;;3.08;;
4986;SDS011;12674;51.500;7.552;2023-08-24T10:05:01;11.25;;;3.38;;
4986;SDS011;12674;51.500;7.552;2023-08-24T10:07:07;7.38;;;2.80;;
4986;SDS011;12674;51.500;7.552;2023-08-24T10:09:14;10.85;;;3.95;;
4986;SDS011;12674;51.500;7.552;2023-08-24T10:11:22;11.95;;;3.38;;
4986;SDS011;12674;51.500;7.552;2023-08-24T10:13:32;11.55;;;3.90;;
4986;SDS011;12674;51.500;7.552;2023-08-24T10:15:38;6.82;;;3.08;;
4986;SDS011;12674;51.500;7.552;2023-08-24T10:17:48;6.70;;;3.15;;
4986;SDS011;12674;51.500;7.552;2023-08-24T10:19:52;8.57;;;3.60;;
4986;SDS011;12674;51.500;7.552;2023-08-24T10:21:55;10.38;;;3.38;;
4986;SDS011;12674;51.500;7.552;2023-08-24T10:23:59;9.13;;;3.13;;
4986;SDS011;12674;51.500;7.552;2023-08-24T10:26:05;11.55;;;3.78;;
4986;SDS011;12674;51.500;7.552;2023-08-24T10:28:10;6.55;;;3.05;;
4986;SDS011;12674;51.500;7.552;2023-08-24T10:30:15;9.38;;;3.67;;
4986;SDS011;12674;51.500;7.552;2023-08-24T10:32:18;5.43;;;3.10;;
4986;SDS011;12674;51.500;7.552;2023-08-24T10:34:21;7.63;;;3.08;;
4986;SDS011;12674;51.500;7.552;2023-08-24T10:36:24;9.98;;;3.20;;
4986;SDS011;12674;51.500;7.552;2023-08-24T10:38:28;5.53;;;3.40;;
4986;SDS011;12674;51.500;7.552;2023-08-24T10:40:32;12.00;;;4.53;;
4986;SDS011;12674;51.500;7.552;2023-08-24T10:42:44;5.05;;;2.90;;
4986;SDS011;12674;51.500;7.552;2023-08-24T10:44:48;7.72;;;3.47;;
4986;SDS011;12674;51.500;7.552;2023-08-24T10:47:11;9.05;;;3.13;;
4986;SDS011;12674;51.500;7.552;2023-08-24T10:49:18;11.73;;;3.25;;
4986;SDS011;12674;51.500;7.552;2023-08-24T10:51:21;7.35;;;2.85;;
4986;SDS011;12674;51.500;7.552;2023-08-24T10:53:39;13.40;;;3.13;;
4986;SDS011;12674;51.500;7.552;2023-08-24T10:55:42;14.00;;;3.22;;
4986;SDS011;12674;51.500;7.552;2023-08-24T10:57:45;6.97;;;3.40;;
4986;SDS011;12674;51.500;7.552;2023-08-24T10:59:59;8.38;;;2.80;;
4986;SDS011;12674;51.500;7.552;2023-08-24T11:02:10;9.88;;;3.35;;
4986;SDS011;12674;51.500;7.552;2023-08-24T11:04:20;7.72;;;2.90;;
4986;SDS011;12674;51.500;7.552;2023-08-24T11:06:24;12.38;;;3.00;;
4986;SDS011;12674;51.500;7.552;2023-08-24T11:08:45;6.15;;;2.42;;
4986;SDS011;12674;51.500;7.552;2023-08-24T11:10:49;5.20;;;3.08;;
4986;SDS011;12674;51.500;7.552;2023-08-24T11:15:14;2.47;;;2.00;;
4986;SDS011;12674;51.500;7.552;2023-08-24T11:17:33;6.30;;;2.88;;
4986;SDS011;12674;51.500;7.552;2023-08-24T11:19:36;4.68;;;2.30;;
4986;SDS011;12674;51.500;7.552;2023-08-24T11:21:39;3.97;;;2.30;;
4986;SDS011;12674;51.500;7.552;2023-08-24T11:23:43;4.97;;;2.38;;
4986;SDS011;12674;51.500;7.552;2023-08-24T11:25:47;5.25;;;3.05;;
4986;SDS011;12674;51.500;7.552;2023-08-24T11:27:52;6.93;;;2.78;;
4986;SDS011;12674;51.500;7.552;2023-08-24T11:29:59;6.88;;;2.80;;
4986;SDS011;12674;51.500;7.552;2023-08-24T11:32:03;4.65;;;2.58;;
4986;SDS011;12674;51.500;7.552;2023-08-24T11:34:08;6.50;;;2.65;;
4986;SDS011;12674;51.500;7.552;2023-08-24T11:36:11;7.28;;;2.47;;
4986;SDS011;12674;51.500;7.552;2023-08-24T11:38:14;8.25;;;2.47;;
4986;SDS011;12674;51.500;7.552;2023-08-24T11:40:18;5.40;;;2.58;;
4986;SDS011;12674;51.500;7.552;2023-08-24T11:42:21;6.53;;;2.60;;
4986;SDS011;12674;51.500;7.552;2023-08-24T11:44:24;4.70;;;2.70;;
4986;SDS011;12674;51.500;7.552;2023-08-24T11:46:30;4.28;;;2.40;;
4986;SDS011;12674;51.500;7.552;2023-08-24T11:48:33;4.70;;;2.53;;
4986;SDS011;12674;51.500;7.552;2023-08-24T11:50:39;5.15;;;2.30;;
4986;SDS011;12674;51.500;7.552;2023-08-24T11:52:43;5.07;;;2.38;;
4986;SDS011;12674;51.500;7.552;2023-08-24T11:54:46;9.70;;;2.72;;
4986;SDS011;12674;51.500;7.552;2023-08-24T11:56:49;5.05;;;2.45;;
4986;SDS011;12674;51.500;7.552;2023-08-24T11:58:52;6.78;;;2.63;;
4986;SDS011;12674;51.500;7.552;2023-08-24T12:00:55;5.25;;;2.17;;
4986;SDS011;12674;51.500;7.552;2023-08-24T12:02:58;8.38;;;3.15;;
4986;SDS011;12674;51.500;7.552;2023-08-24T12:05:05;4.50;;;3.13;;
4986;SDS011;12674;51.500;7.552;2023-08-24T12:07:10;5.97;;;2.40;;
4986;SDS011;12674;51.500;7.552;2023-08-24T12:09:13;5.20;;;2.58;;
4986;SDS011;12674;51.500;7.552;2023-08-24T12:11:18;5.68;;;2.42;;
4986;SDS011;12674;51.500;7.552;2023-08-24T12:13:21;4.28;;;2.38;;
4986;SDS011;12674;51.500;7.552;2023-08-24T12:15:27;8.10;;;2.55;;
4986;SDS011;12674;51.500;7.552;2023-08-24T12:17:41;5.50;;;2.58;;
4986;SDS011;12674;51.500;7.552;2023-08-24T12:19:45;8.43;;;2.50;;
4986;SDS011;12674;51.500;7.552;2023-08-24T12:21:59;6.43;;;3.22;;
4986;SDS011;12674;51.500;7.552;2023-08-24T12:24:04;10.02;;;2.85;;
4986;SDS011;12674;51.500;7.552;2023-08-24T12:26:08;7.65;;;2.95;;
4986;SDS011;12674;51.500;7.552;2023-08-24T12:28:10;5.22;;;2.58;;
4986;SDS011;12674;51.500;7.552;2023-08-24T12:30:14;10.50;;;3.38;;
4986;SDS011;12674;51.500;7.552;2023-08-24T12:32:17;8.52;;;2.72;;
4986;SDS011;12674;51.500;7.552;2023-08-24T12:34:23;5.32;;;2.20;;
4986;SDS011;12674;51.500;7.552;2023-08-24T12:36:26;6.78;;;2.78;;
4986;SDS011;12674;51.500;7.552;2023-08-24T12:38:30;5.35;;;2.75;;
4986;SDS011;12674;51.500;7.552;2023-08-24T12:40:34;8.52;;;2.83;;